METAR AND TAF INFORMATION
METAR FOR EDDN
ADDS - METARS form results

(0237 UTC 20 September 2019)
Data provider http://aviationweather.gov/metar/data/
 
METAR text: EDDN 200220Z VRB02KT CAVOK 01/00 Q1029
Conditions at: EDDN (NUERNBERG , DE) observed 0220 UTC 20 September 2019
Temperature: 1.0°C (34°F)
Dewpoint: 0.0°C (32°F) [RH = 93%]
Pressure (altimeter): 30.38 inches Hg (1029.0 mb)
Winds: variable direction winds at 2 MPH (2 knots; 1.0 m/s)
Visibility: 6 or more miles (10+ km)
Ceiling: ceiling and visibility are OK
Clouds: unknown
Weather: no significant weather observed at this time

METAR text: EDDN 200150Z VRB01KT CAVOK 02/00 Q1029
Conditions at: EDDN (NUERNBERG , DE) observed 0150 UTC 20 September 2019
Temperature: 2.0°C (36°F)
Dewpoint: 0.0°C (32°F) [RH = 87%]
Pressure (altimeter): 30.38 inches Hg (1029.0 mb)
Winds: variable direction winds at 1 MPH (1 knots; 0.5 m/s)
Visibility: 6 or more miles (10+ km)
Ceiling: ceiling and visibility are OK
Clouds: unknown
Weather: no significant weather observed at this time

Forecast for: EDDN (NUERNBERG , DE)
Text: TAF EDDN 192300Z 2000/2024 VRB03KT CAVOK
Forecast period: 0000 UTC 20 September 2019 to 0000 UTC 21 September 2019
Forecast type: FROM: standard forecast or significant change
Winds: variable direction winds at 3 MPH (3 knots; 1.5 m/s)
Visibility: 6 or more miles 10+ km)
Ceiling: unknown
Clouds: missing
Weather: NSW  (no significant weather)
Text: TEMPO 2011/2017 08005KT
Forecast period: 1100 to 1700 UTC 20 September 2019
Forecast type: TEMPORARY: The following changes expected for less than half the time period
Winds: from the E (80 degrees) at 6 MPH (5 knots; 2.6 m/s)
Visibility: missing
Ceiling: unknown
Clouds: missing
Weather: no significant weather forecast for this period

 AIRPORT MAP

 RUNWAY INFORMATION
Runway 10 Runway length 8858 ft Runway width 148 ft
Runway elevation 1022 ft Runway displaced threshold 0 ft Runway heading 99
Runway 28 Runway length 8858 ft Runway width 148 ft
Runway elevation 1046 ft Runway displaced threshold 0 ft Runway heading 279

 AIRPORT FREQUENCIES
Type AFIS Name MUNCHEN IN Frequency 120.65 MHZ
Type ATIS Name ATIS Frequency 123.075 MHZ
Type DIR Name DIR Frequency 119.475 MHZ
Type GND Name GND Frequency 118.1 MHZ
Type RDR Name MUNCHEN RA Frequency 118.975 MHZ
Type TWR Name TWR Frequency 118.3 MHZ

 AIRPORT NEAR NAVIGATION AIDS
Type DME Name Nurnberg Frequency 113100 KHZ
Type NDB Name Rothenbach Frequency 415 KHZ